メインページ
METAR-TAF:

METAR-TAF

空港 :

ジブラルタル国際空港

ジブラルタル, ジブラルタル

緯度: 36-09N, 経度: 005-21W, 海抜: 5m

現時点の気象観測

当レポートは41分前の09:50(UTC)に作成
の風 13kt
気温 23°C
湿度 73%
気圧 1020 hPa
視程10km以上
高度1000ftの雲はほとんどない

METAR: LXGB 190950Z 10013KT 9999 FEW010 23/18 Q1020 NOSIG

時間: 12:31 (10:31 UTC)

予報

当レポートは3時間6分前の07:25(UTC)に作成
予報は19日の 09時(UTC)から 19日の 18時(UTC)まで有効
の風 14kt
視程10km以上
高度1200ftの雲はほとんどない
19日の 09時(UTC)から 19日の 11時(UTC)まで徐々に
の風 16kt、最大26ktの突風を伴う

TAF: LXGB 190725Z 1909/1918 09014KT 9999 FEW012 BECMG 1909/1911 10016G26KT

4,000以上の空港の気象観測と天気予報(METAR報とTAF報)

利用可能な観測所は地図上に黄色い丸と赤い丸で示す。

丸の上にカーソルを重ねると観測所名を参照できる。

次にクリックすると気象観測と天気予報を参照できる。

マップの切り替え:黒色「×」印の緑ボタンをクリックして拡大、「-」印の緑ボタンをクリックして縮小、緑色の三角印をクリックして隣りの地図に切り替え


METAR-TAF: